Time;durP1;ratioP1;P1;durP2;ratioP2;P2;SDS_P1;SDS_P2;PMS_P1;PMS_P2;Temp;Humidity;BMP_temperature;BMP_pressure;BME280_temperature;BME280_humidity;BME280_pressure;Samples;Min_cycle;Max_cycle;Signal;HPM_P1;HPM_P2
2023/01/06 00:00:37;;;;;;;6.20;2.30;;;12.00;99.90;;;;;;4978925;28;20630;-84
2023/01/06 00:03:04;;;;;;;3.23;1.53;;;11.90;99.90;;;;;;4964103;28;20178;-85
2023/01/06 00:05:30;;;;;;;6.03;1.70;;;11.90;99.90;;;;;;4986060;28;20277;-82
2023/01/06 00:07:56;;;;;;;4.10;1.60;;;11.90;99.90;;;;;;4981750;28;20164;-84
2023/01/06 00:10:22;;;;;;;7.20;2.30;;;11.80;99.90;;;;;;4979897;28;20176;-83
2023/01/06 00:12:49;;;;;;;6.07;1.87;;;11.90;99.90;;;;;;4980427;28;20176;-82
2023/01/06 00:15:17;;;;;;;3.60;1.47;;;11.90;99.70;;;;;;4979863;28;20176;-83
2023/01/06 00:17:42;;;;;;;4.90;2.00;;;11.90;99.40;;;;;;4976982;28;20687;-82
2023/01/06 00:20:09;;;;;;;6.83;1.80;;;12.00;98.80;;;;;;4977707;28;20185;-83
2023/01/06 00:22:35;;;;;;;7.30;2.13;;;11.90;99.00;;;;;;4977008;28;20172;-82
2023/01/06 00:25:01;;;;;;;5.83;1.70;;;11.90;98.90;;;;;;4976676;28;20213;-83
2023/01/06 00:27:27;;;;;;;5.83;1.60;;;11.90;98.60;;;;;;4976894;28;20261;-83
2023/01/06 00:29:52;;;;;;;4.03;1.47;;;11.90;98.00;;;;;;4977308;28;20234;-82
2023/01/06 00:32:18;;;;;;;4.97;1.50;;;11.90;97.60;;;;;;4976847;28;20191;-83
2023/01/06 00:34:44;;;;;;;4.80;1.40;;;11.90;97.70;;;;;;4977363;28;20615;-84
2023/01/06 00:37:10;;;;;;;3.90;1.67;;;11.90;97.70;;;;;;4976915;28;20545;-84
2023/01/06 00:39:36;;;;;;;3.60;1.40;;;11.90;96.70;;;;;;4977848;28;20214;-88
2023/01/06 00:42:02;;;;;;;6.93;1.60;;;11.90;96.40;;;;;;4976185;28;20652;-83
2023/01/06 00:44:32;;;;;;;3.63;1.27;;;12.00;95.90;;;;;;4977624;28;20218;-84
2023/01/06 00:46:58;;;;;;;5.47;1.67;;;11.90;95.70;;;;;;4977229;28;20182;-82
2023/01/06 00:49:24;;;;;;;4.93;1.50;;;11.90;95.20;;;;;;4977345;28;20169;-82
2023/01/06 00:51:50;;;;;;;6.70;1.90;;;12.00;95.00;;;;;;4975966;28;20616;-83
2023/01/06 00:54:17;;;;;;;4.47;1.43;;;12.10;94.70;;;;;;4976404;28;20198;-83
2023/01/06 00:56:45;;;;;;;6.30;1.57;;;11.90;95.00;;;;;;4978498;28;20168;-81
2023/01/06 00:59:13;;;;;;;3.37;1.30;;;12.00;95.00;;;;;;4977550;28;20173;-80
2023/01/06 01:01:40;;;;;;;5.27;1.30;;;11.90;94.30;;;;;;4978881;28;20179;-82
2023/01/06 01:04:09;;;;;;;3.70;1.33;;;11.90;94.10;;;;;;4982059;28;20204;-81
2023/01/06 01:06:35;;;;;;;3.57;1.30;;;12.00;94.30;;;;;;4976841;28;20635;-82
2023/01/06 01:09:04;;;;;;;3.60;1.50;;;11.90;94.60;;;;;;4975767;28;20168;-82
2023/01/06 01:14:17;;;;;;;5.57;1.43;;;11.90;95.20;;;;;;4980384;28;20182;-87
2023/01/06 01:16:43;;;;;;;4.83;1.40;;;11.90;95.30;;;;;;4979898;28;20180;-85
2023/01/06 01:19:10;;;;;;;3.33;1.13;;;11.90;95.90;;;;;;4978260;28;20174;-87
2023/01/06 01:21:36;;;;;;;3.37;1.30;;;11.90;96.00;;;;;;4977688;28;20648;-84
2023/01/06 01:24:02;;;;;;;2.77;1.37;;;11.90;96.50;;;;;;4978314;28;20314;-82
2023/01/06 01:26:28;;;;;;;4.30;1.73;;;11.90;96.80;;;;;;4977488;28;20172;-83
2023/01/06 01:28:53;;;;;;;4.80;1.63;;;12.10;96.50;;;;;;4977430;28;20636;-83
2023/01/06 01:31:19;;;;;;;5.57;1.50;;;11.90;96.70;;;;;;4975787;28;20635;-84
2023/01/06 01:33:45;;;;;;;4.67;1.27;;;12.10;97.40;;;;;;4975775;28;20177;-83
2023/01/06 01:36:14;;;;;;;5.17;1.60;;;11.90;97.50;;;;;;4977569;28;20179;-84
2023/01/06 01:38:40;;;;;;;3.73;1.57;;;12.00;98.10;;;;;;4978774;28;20164;-81
2023/01/06 01:41:08;;;;;;;3.03;1.30;;;11.90;98.30;;;;;;4984738;28;20550;-83
2023/01/06 01:43:42;;;;;;;3.67;1.57;;;11.90;99.00;;;;;;4977473;28;20326;-83
2023/01/06 01:46:08;;;;;;;4.80;1.80;;;11.90;99.80;;;;;;4975923;28;21328;-87
2023/01/06 01:48:35;;;;;;;4.13;1.40;;;12.00;99.80;;;;;;4976359;28;20251;-83
2023/01/06 01:51:03;;;;;;;4.03;1.10;;;11.90;99.00;;;;;;4979804;28;20186;-83
2023/01/06 01:53:39;;;;;;;5.17;1.57;;;12.10;98.30;;;;;;4978419;28;20183;-82
2023/01/06 01:56:08;;;;;;;2.87;1.30;;;12.00;99.00;;;;;;4986555;28;20186;-82
2023/01/06 01:58:43;;;;;;;3.70;1.40;;;11.90;99.40;;;;;;4979645;28;20188;-84
2023/01/06 02:01:12;;;;;;;3.90;1.33;;;11.90;99.90;;;;;;4975804;28;20290;-82
2023/01/06 02:03:40;;;;;;;6.63;1.90;;;11.90;99.50;;;;;;4976624;28;20270;-84
2023/01/06 02:06:21;;;;;;;5.90;1.80;;;11.90;99.80;;;;;;4976478;28;20186;-84
2023/01/06 02:08:55;;;;;;;3.13;1.10;;;11.90;99.90;;;;;;4976541;28;20175;-80
2023/01/06 02:11:22;;;;;;;4.50;1.37;;;11.90;99.60;;;;;;4979808;28;20159;-81
2023/01/06 02:13:53;;;;;;;3.57;1.40;;;11.80;99.90;;;;;;4976122;28;20171;-82
2023/01/06 02:16:27;;;;;;;4.40;1.30;;;11.90;99.30;;;;;;4979119;28;20214;-84
2023/01/06 02:19:17;;;;;;;5.20;1.30;;;11.90;99.40;;;;;;4976965;28;20531;-82
2023/01/06 02:22:13;;;;;;;2.67;1.37;;;11.90;99.10;;;;;;4978498;28;20531;-87
2023/01/06 02:24:44;;;;;;;7.10;1.50;;;11.90;99.40;;;;;;4976715;28;20255;-88
2023/01/06 02:27:53;;;;;;;3.03;1.10;;;11.90;99.40;;;;;;4975747;28;20179;-87
2023/01/06 02:30:33;;;;;;;4.10;1.27;;;11.90;99.60;;;;;;4980322;28;20175;-81
2023/01/06 02:33:17;;;;;;;5.87;1.30;;;11.90;99.90;;;;;;4977960;28;20560;-82
2023/01/06 02:35:49;;;;;;;2.20;1.20;;;11.90;99.90;;;;;;4979656;28;20271;-80
2023/01/06 02:38:50;;;;;;;4.33;1.13;;;11.90;99.90;;;;;;4977649;28;20585;-83
2023/01/06 02:41:39;;;;;;;1.93;0.97;;;11.80;99.90;;;;;;4974427;28;20210;-82
2023/01/06 02:44:18;;;;;;;2.80;1.00;;;11.80;99.90;;;;;;4973967;28;20699;-82
2023/01/06 02:47:03;;;;;;;4.03;1.43;;;12.00;99.90;;;;;;4973546;28;20188;-83
2023/01/06 02:49:52;;;;;;;2.77;1.17;;;11.90;99.90;;;;;;4975350;28;20203;-83
2023/01/06 02:52:45;;;;;;;4.97;1.50;;;11.90;99.90;;;;;;4975071;28;20181;-81
2023/01/06 02:55:27;;;;;;;2.20;1.07;;;11.70;99.90;;;;;;4973705;28;20187;-82
2023/01/06 02:58:00;;;;;;;4.47;1.20;;;11.80;99.90;;;;;;4974170;28;20195;-81
2023/01/06 03:00:41;;;;;;;4.37;1.33;;;11.80;99.90;;;;;;4973781;28;20188;-82
2023/01/06 03:03:16;;;;;;;2.43;1.13;;;11.80;99.90;;;;;;4975093;28;20182;-82
2023/01/06 03:05:46;;;;;;;2.73;1.10;;;11.80;99.90;;;;;;4973565;28;20210;-82
2023/01/06 03:08:17;;;;;;;4.93;1.47;;;11.80;99.90;;;;;;4975153;28;20168;-83
2023/01/06 03:10:45;;;;;;;3.20;1.10;;;11.70;99.90;;;;;;4973586;28;20179;-81
2023/01/06 03:13:22;;;;;;;2.20;1.10;;;11.70;99.90;;;;;;4974676;28;20223;-82
2023/01/06 03:15:48;;;;;;;1.90;0.90;;;11.70;99.90;;;;;;4974771;28;20179;-81
2023/01/06 03:18:14;;;;;;;3.10;1.00;;;11.80;99.90;;;;;;4975353;28;20231;-80
2023/01/06 03:20:41;;;;;;;5.30;1.30;;;11.90;99.90;;;;;;4974435;28;20180;-82
2023/01/06 03:23:07;;;;;;;3.77;1.00;;;11.70;99.90;;;;;;4973533;28;20171;-83
2023/01/06 03:25:32;;;;;;;1.53;0.90;;;11.80;99.90;;;;;;4973225;28;20234;-82
2023/01/06 03:27:58;;;;;;;2.47;0.93;;;11.70;99.90;;;;;;4973490;28;20270;-82
2023/01/06 03:30:32;;;;;;;4.63;1.23;;;11.70;99.90;;;;;;4973130;28;20175;-82
2023/01/06 03:33:19;;;;;;;2.60;1.03;;;11.70;99.90;;;;;;4973869;28;20171;-83
2023/01/06 03:36:14;;;;;;;2.30;1.00;;;11.70;99.90;;;;;;4975555;28;20168;-83
2023/01/06 03:38:57;;;;;;;3.67;1.10;;;11.70;99.90;;;;;;4975710;28;20275;-85
2023/01/06 03:44:41;;;;;;;4.27;1.03;;;11.60;99.90;;;;;;4975829;28;20334;-85
2023/01/06 03:47:17;;;;;;;3.93;1.20;;;11.60;99.90;;;;;;4973758;28;20187;-84
2023/01/06 03:49:55;;;;;;;4.40;1.20;;;11.60;99.90;;;;;;4975826;28;20647;-84
2023/01/06 03:52:31;;;;;;;3.27;1.10;;;11.60;99.90;;;;;;4975369;28;20264;-82
2023/01/06 03:55:02;;;;;;;3.13;1.10;;;11.60;99.90;;;;;;4979283;28;20563;-82
2023/01/06 03:57:35;;;;;;;4.27;1.20;;;11.50;99.90;;;;;;4975995;28;20206;-84
2023/01/06 04:00:10;;;;;;;2.93;1.00;;;11.60;99.90;;;;;;4974312;28;20260;-84
2023/01/06 04:02:37;;;;;;;3.50;1.13;;;11.60;99.90;;;;;;4975099;28;20171;-84
2023/01/06 04:05:14;;;;;;;2.80;1.07;;;11.60;99.90;;;;;;4975382;28;20219;-83
2023/01/06 04:07:41;;;;;;;3.37;1.00;;;11.60;99.90;;;;;;4979375;28;20179;-81
2023/01/06 04:10:10;;;;;;;3.13;0.87;;;11.50;99.90;;;;;;4984067;28;20173;-81
2023/01/06 04:12:38;;;;;;;2.57;1.20;;;11.60;99.90;;;;;;4979388;28;20238;-83
2023/01/06 04:15:07;;;;;;;2.93;0.97;;;11.70;99.90;;;;;;4973962;28;20176;-85
2023/01/06 04:17:39;;;;;;;3.83;1.10;;;11.60;99.90;;;;;;4974648;28;20187;-87
2023/01/06 04:20:07;;;;;;;2.50;1.20;;;11.50;99.90;;;;;;4973611;28;20200;-85
2023/01/06 04:22:33;;;;;;;2.63;1.30;;;11.50;99.90;;;;;;4975654;28;20242;-87
2023/01/06 04:24:59;;;;;;;4.90;1.03;;;11.60;99.90;;;;;;4977041;28;20285;-83
2023/01/06 04:27:25;;;;;;;1.67;0.90;;;11.50;99.90;;;;;;4977402;28;20183;-83
2023/01/06 04:29:53;;;;;;;2.70;1.00;;;11.50;99.90;;;;;;4989526;28;20168;-82
2023/01/06 04:32:23;;;;;;;2.67;0.80;;;11.50;99.90;;;;;;4977723;28;20601;-86
2023/01/06 04:34:49;;;;;;;2.37;0.90;;;11.50;99.90;;;;;;4978460;28;20579;-86
2023/01/06 04:37:14;;;;;;;2.60;0.90;;;11.50;99.90;;;;;;4976915;28;20266;-86
2023/01/06 04:39:40;;;;;;;2.40;1.00;;;11.60;99.90;;;;;;4976895;28;20267;-87
2023/01/06 04:42:06;;;;;;;2.30;1.23;;;11.60;99.90;;;;;;4976652;28;20546;-87
2023/01/06 04:44:31;;;;;;;3.30;1.10;;;11.60;99.90;;;;;;4977077;28;20698;-84
2023/01/06 04:46:57;;;;;;;2.00;0.93;;;11.60;99.90;;;;;;4976563;28;20175;-82
2023/01/06 04:49:23;;;;;;;1.50;0.90;;;11.50;99.90;;;;;;4969280;28;20697;-82
2023/01/06 04:51:49;;;;;;;2.03;0.80;;;11.50;99.90;;;;;;4984213;28;20222;-81
2023/01/06 04:54:16;;;;;;;3.07;0.77;;;11.50;99.90;;;;;;4983711;28;20643;-81
2023/01/06 04:56:41;;;;;;;1.23;0.60;;;11.60;99.90;;;;;;4976900;28;20175;-83
2023/01/06 04:59:07;;;;;;;1.80;1.00;;;11.60;99.90;;;;;;4977671;28;20176;-83
2023/01/06 05:01:35;;;;;;;2.03;1.00;;;11.70;99.90;;;;;;4977537;28;20647;-81
2023/01/06 05:04:01;;;;;;;2.40;1.00;;;11.50;99.90;;;;;;4977218;28;20192;-81
2023/01/06 05:06:27;;;;;;;2.80;0.90;;;11.60;99.90;;;;;;4976206;28;20550;-85
2023/01/06 05:08:53;;;;;;;2.87;0.90;;;11.50;99.90;;;;;;4975945;28;20176;-87
2023/01/06 05:11:21;;;;;;;2.10;0.80;;;11.50;99.90;;;;;;4976374;28;20176;-85
2023/01/06 05:13:47;;;;;;;2.67;1.03;;;11.60;99.90;;;;;;4976967;28;20169;-82
2023/01/06 05:16:17;;;;;;;2.57;1.03;;;11.50;99.90;;;;;;4976931;28;20187;-82
2023/01/06 05:18:43;;;;;;;2.33;0.80;;;11.60;99.90;;;;;;4975911;28;20271;-82
2023/01/06 05:21:09;;;;;;;2.37;1.00;;;11.70;99.90;;;;;;4976190;28;20270;-82
2023/01/06 05:23:38;;;;;;;2.03;0.70;;;11.70;99.90;;;;;;4975519;28;20651;-83
2023/01/06 05:26:05;;;;;;;1.37;0.90;;;11.70;99.90;;;;;;4977015;28;20187;-84
2023/01/06 05:28:31;;;;;;;2.10;0.83;;;11.70;99.90;;;;;;4977086;28;20176;-82
2023/01/06 05:31:04;;;;;;;2.57;0.90;;;11.70;99.90;;;;;;4974773;28;20171;-81
2023/01/06 05:33:31;;;;;;;3.10;0.90;;;11.80;99.90;;;;;;4976826;28;20619;-81
2023/01/06 05:36:07;;;;;;;3.23;0.90;;;12.00;99.90;;;;;;4977377;28;20164;-83
2023/01/06 05:38:33;;;;;;;0.93;0.80;;;11.90;99.90;;;;;;4977353;28;20243;-81
2023/01/06 05:41:01;;;;;;;3.77;1.20;;;11.90;99.90;;;;;;4976342;28;20207;-80
2023/01/06 05:43:33;;;;;;;2.83;1.30;;;12.00;99.90;;;;;;4975763;28;20221;-80
2023/01/06 05:45:59;;;;;;;3.27;0.90;;;11.80;99.90;;;;;;4976158;28;20183;-81
2023/01/06 05:48:26;;;;;;;1.13;0.67;;;11.90;99.90;;;;;;4975248;28;20184;-81
2023/01/06 05:50:52;;;;;;;1.20;0.70;;;11.80;99.90;;;;;;4976257;28;20184;-81
2023/01/06 05:53:17;;;;;;;2.37;0.97;;;11.90;99.90;;;;;;4976798;28;20180;-87
2023/01/06 05:55:43;;;;;;;2.67;0.97;;;11.90;99.90;;;;;;4978689;28;20183;-85
2023/01/06 05:58:09;;;;;;;2.27;1.00;;;11.90;99.90;;;;;;4997013;28;20199;-88
2023/01/06 06:00:35;;;;;;;1.87;0.70;;;11.90;99.90;;;;;;4982092;28;20584;-87
2023/01/06 06:03:02;;;;;;;1.53;0.70;;;11.90;99.90;;;;;;4980496;28;20240;-88
2023/01/06 06:05:28;;;;;;;1.87;0.80;;;11.80;99.90;;;;;;4977697;28;20219;-88
2023/01/06 06:07:55;;;;;;;2.37;0.80;;;12.10;99.90;;;;;;4979547;28;20175;-88
2023/01/06 06:10:21;;;;;;;1.43;0.90;;;11.90;99.90;;;;;;4981033;28;20624;-80
2023/01/06 06:12:47;;;;;;;1.67;0.87;;;11.80;99.90;;;;;;4987494;28;20170;-84
2023/01/06 06:15:13;;;;;;;1.30;0.63;;;11.70;99.90;;;;;;4978938;28;20176;-86
2023/01/06 06:17:39;;;;;;;1.57;0.67;;;11.90;99.90;;;;;;4976419;28;20180;-83
2023/01/06 06:20:05;;;;;;;1.33;0.70;;;12.00;99.90;;;;;;4975525;28;20206;-84
2023/01/06 06:22:31;;;;;;;1.53;0.70;;;11.90;99.90;;;;;;4975618;28;20180;-84
2023/01/06 06:24:57;;;;;;;2.23;0.87;;;11.90;99.90;;;;;;4986449;28;20239;-82
2023/01/06 06:27:22;;;;;;;2.00;0.70;;;11.90;99.90;;;;;;4980139;28;20262;-84
2023/01/06 06:29:51;;;;;;;2.63;0.70;;;12.10;99.90;;;;;;4986923;28;20227;-83
2023/01/06 06:32:17;;;;;;;1.67;0.73;;;12.00;99.90;;;;;;4996143;28;20187;-82
2023/01/06 06:34:45;;;;;;;1.13;0.70;;;11.90;99.90;;;;;;4987726;28;20620;-82
2023/01/06 06:37:11;;;;;;;2.37;0.80;;;11.90;99.90;;;;;;4979582;28;20640;-81
2023/01/06 06:39:47;;;;;;;0.83;0.70;;;11.80;99.90;;;;;;4976494;28;20174;-82
2023/01/06 06:42:12;;;;;;;2.37;0.90;;;11.90;99.90;;;;;;4976524;28;20195;-84
2023/01/06 06:44:38;;;;;;;1.77;0.73;;;12.00;99.90;;;;;;4974204;28;20287;-81
2023/01/06 06:47:04;;;;;;;1.20;0.67;;;12.00;99.90;;;;;;4978086;28;20697;-82
2023/01/06 06:49:29;;;;;;;2.77;1.00;;;11.90;99.90;;;;;;4976756;28;20648;-82
2023/01/06 06:51:55;;;;;;;2.07;0.80;;;11.90;99.90;;;;;;4976325;28;20644;-81
2023/01/06 06:54:20;;;;;;;1.80;0.50;;;11.80;99.90;;;;;;4977964;28;20180;-81
2023/01/06 06:56:46;;;;;;;1.77;0.77;;;11.80;99.90;;;;;;4976327;28;20535;-83
2023/01/06 06:59:12;;;;;;;2.23;0.90;;;11.90;99.90;;;;;;4975218;28;20659;-82
2023/01/06 07:01:37;;;;;;;1.27;0.60;;;11.90;99.90;;;;;;4975297;28;20172;-82
2023/01/06 07:04:03;;;;;;;1.07;0.73;;;12.00;99.90;;;;;;4974399;28;20254;-81
2023/01/06 07:06:30;;;;;;;0.60;0.57;;;11.90;99.90;;;;;;4976230;28;20653;-85
2023/01/06 07:08:56;;;;;;;1.97;0.83;;;11.90;99.90;;;;;;4976781;28;20174;-81
2023/01/06 07:11:22;;;;;;;4.30;0.63;;;12.10;99.90;;;;;;4976081;28;20179;-84
2023/01/06 07:13:48;;;;;;;2.80;1.00;;;11.90;99.90;;;;;;4975778;28;20637;-83
2023/01/06 07:16:13;;;;;;;2.80;0.80;;;11.90;99.90;;;;;;4978154;28;20268;-83
2023/01/06 07:18:39;;;;;;;1.43;0.90;;;11.90;99.90;;;;;;4975433;28;20187;-83
2023/01/06 07:21:05;;;;;;;2.47;0.80;;;11.90;99.90;;;;;;4974800;28;20165;-84
2023/01/06 07:23:31;;;;;;;1.67;0.83;;;11.90;99.90;;;;;;4974467;28;20183;-86
2023/01/06 07:25:59;;;;;;;2.33;1.23;;;11.90;99.90;;;;;;4975044;28;20181;-86
2023/01/06 07:28:30;;;;;;;3.10;1.03;;;11.90;99.90;;;;;;4975201;28;20636;-83
2023/01/06 07:30:57;;;;;;;2.97;1.00;;;11.90;99.90;;;;;;4975626;28;20182;-81
2023/01/06 07:33:23;;;;;;;2.27;0.80;;;11.90;99.90;;;;;;4974247;28;20172;-82
2023/01/06 07:35:53;;;;;;;2.73;1.27;;;11.80;99.90;;;;;;4973680;28;20183;-83
2023/01/06 07:38:19;;;;;;;2.63;1.10;;;11.80;99.90;;;;;;4974457;28;20175;-82
2023/01/06 07:40:45;;;;;;;2.80;0.97;;;11.80;99.90;;;;;;4974172;28;20188;-86
2023/01/06 07:43:12;;;;;;;2.10;1.00;;;11.80;99.90;;;;;;4974196;28;20178;-85
2023/01/06 07:45:38;;;;;;;2.50;1.20;;;11.70;99.90;;;;;;4973665;28;20300;-83
2023/01/06 07:48:04;;;;;;;3.13;1.03;;;11.80;99.90;;;;;;4975150;28;20275;-85
2023/01/06 07:50:31;;;;;;;2.00;1.13;;;11.70;99.90;;;;;;4977089;28;20195;-83
2023/01/06 07:52:58;;;;;;;1.97;1.13;;;12.00;99.90;;;;;;4979243;28;20175;-80
2023/01/06 07:55:24;;;;;;;1.97;1.03;;;11.80;99.90;;;;;;4987825;28;20183;-87
2023/01/06 07:57:52;;;;;;;2.20;1.00;;;11.80;99.90;;;;;;4994070;28;20282;-89
2023/01/06 08:00:18;;;;;;;1.50;1.10;;;11.90;99.90;;;;;;5001103;28;20220;-86
2023/01/06 08:02:48;;;;;;;2.23;1.20;;;11.80;99.90;;;;;;4994435;28;20203;-89
2023/01/06 08:05:20;;;;;;;3.77;1.40;;;11.90;99.90;;;;;;4985152;28;20198;-89
2023/01/06 08:07:46;;;;;;;2.10;1.33;;;11.90;99.90;;;;;;4981389;28;20157;-89
2023/01/06 08:10:11;;;;;;;2.00;1.30;;;11.90;99.90;;;;;;4979494;28;20223;-87
2023/01/06 08:12:37;;;;;;;2.87;1.37;;;11.90;99.90;;;;;;4984493;28;20219;-85
2023/01/06 08:15:03;;;;;;;1.50;1.20;;;11.70;99.90;;;;;;4997477;28;20210;-88
2023/01/06 08:17:30;;;;;;;4.10;2.47;;;11.80;99.90;;;;;;4983240;28;20187;-88
2023/01/06 08:19:57;;;;;;;3.33;2.20;;;11.90;99.90;;;;;;4978187;28;20175;-87
2023/01/06 08:22:23;;;;;;;2.40;1.30;;;11.90;99.90;;;;;;4992111;28;20172;-85
2023/01/06 08:24:49;;;;;;;2.97;1.53;;;11.80;99.90;;;;;;4993290;28;20294;-88
2023/01/06 08:27:19;;;;;;;3.53;1.50;;;11.90;99.90;;;;;;4982909;28;20254;-88
2023/01/06 08:29:45;;;;;;;5.03;2.40;;;11.90;99.90;;;;;;4978763;28;20160;-89
2023/01/06 08:32:11;;;;;;;15.93;7.00;;;11.90;99.90;;;;;;4980541;28;20175;-88
2023/01/06 08:34:37;;;;;;;9.33;4.00;;;11.90;99.90;;;;;;5000669;28;20172;-85
2023/01/06 08:37:03;;;;;;;2.37;1.70;;;11.90;99.90;;;;;;5001141;28;20180;-87
2023/01/06 08:39:28;;;;;;;2.57;1.40;;;11.90;99.90;;;;;;5001382;28;20188;-82
2023/01/06 08:41:57;;;;;;;3.27;1.70;;;11.90;99.90;;;;;;5000216;28;20258;-87
2023/01/06 08:44:42;;;;;;;4.30;1.67;;;11.80;99.90;;;;;;4986023;28;20193;-86
2023/01/06 08:47:08;;;;;;;2.63;1.67;;;11.90;99.90;;;;;;4990992;28;20238;-88
2023/01/06 08:49:33;;;;;;;5.27;1.87;;;11.90;99.90;;;;;;4988713;28;20179;-88
2023/01/06 08:52:00;;;;;;;2.70;1.60;;;11.90;99.90;;;;;;4990250;28;20286;-90
2023/01/06 08:54:28;;;;;;;1.93;1.50;;;12.00;99.90;;;;;;4985111;28;20180;-87
2023/01/06 08:56:54;;;;;;;4.53;1.90;;;12.00;99.90;;;;;;4979685;28;20213;-88
2023/01/06 08:59:21;;;;;;;8.27;2.30;;;11.90;99.90;;;;;;4978286;28;20187;-87
2023/01/06 09:01:46;;;;;;;4.43;2.13;;;12.00;99.90;;;;;;4978670;28;20183;-90
2023/01/06 09:04:12;;;;;;;1.97;1.50;;;11.90;99.90;;;;;;4977267;28;20563;-90
2023/01/06 09:06:41;;;;;;;2.57;1.50;;;11.90;99.90;;;;;;4977459;28;20172;-88
2023/01/06 09:09:08;;;;;;;2.67;1.70;;;11.90;99.90;;;;;;4977661;28;20667;-88
2023/01/06 09:11:34;;;;;;;3.20;1.93;;;11.90;99.90;;;;;;4977744;28;20179;-88
2023/01/06 09:14:00;;;;;;;5.10;3.87;;;11.90;99.90;;;;;;4977330;28;20347;-89
2023/01/06 09:16:26;;;;;;;40.37;23.33;;;11.90;99.90;;;;;;4978840;28;20181;-89
2023/01/06 09:18:52;;;;;;;3.97;2.90;;;11.80;99.90;;;;;;4979684;28;20172;-87
2023/01/06 09:21:20;;;;;;;4.13;2.40;;;11.90;99.90;;;;;;4978891;28;20254;-87
2023/01/06 09:23:47;;;;;;;5.03;2.67;;;11.90;99.90;;;;;;4977902;28;20171;-86
2023/01/06 09:26:14;;;;;;;4.00;2.43;;;11.90;99.90;;;;;;4979503;28;20267;-86
2023/01/06 09:28:40;;;;;;;2.43;2.20;;;11.90;99.90;;;;;;4979022;28;20172;-86
2023/01/06 09:31:06;;;;;;;5.10;3.03;;;12.10;99.90;;;;;;4978742;28;20186;-88
2023/01/06 09:33:32;;;;;;;9.87;7.60;;;12.00;99.90;;;;;;4963195;28;20172;-88
2023/01/06 09:35:58;;;;;;;4.20;3.50;;;12.00;99.90;;;;;;4978041;28;20619;-88
2023/01/06 09:38:26;;;;;;;4.80;2.70;;;12.10;99.90;;;;;;4978187;28;20203;-85
2023/01/06 09:41:14;;;;;;;4.03;2.73;;;12.00;99.90;;;;;;4977297;28;20195;-89
2023/01/06 09:44:17;;;;;;;5.60;2.87;;;12.00;99.90;;;;;;4978299;28;20675;-86
2023/01/06 09:46:46;;;;;;;5.60;2.47;;;11.90;99.90;;;;;;4980677;28;20284;-87
2023/01/06 09:49:38;;;;;;;3.83;2.73;;;12.00;99.90;;;;;;4978110;28;20179;-88
2023/01/06 09:52:12;;;;;;;3.47;2.20;;;12.00;99.90;;;;;;4977971;28;20180;-89
2023/01/06 09:54:49;;;;;;;3.27;2.60;;;11.90;99.90;;;;;;4979439;28;20171;-89
2023/01/06 09:57:21;;;;;;;5.97;3.00;;;11.70;99.90;;;;;;4979063;28;20199;-88
2023/01/06 09:59:57;;;;;;;4.83;2.83;;;12.00;99.90;;;;;;4980675;28;20252;-89
2023/01/06 10:02:36;;;;;;;4.40;2.47;;;12.00;99.90;;;;;;4999223;28;20165;-86
2023/01/06 10:05:35;;;;;;;4.57;2.80;;;11.90;99.90;;;;;;4990964;28;20216;-89
2023/01/06 10:08:19;;;;;;;10.03;7.20;;;11.90;99.90;;;;;;4986252;28;20210;-89
2023/01/06 10:11:03;;;;;;;3.43;2.73;;;12.00;99.90;;;;;;4984071;28;20188;-83
2023/01/06 10:13:48;;;;;;;3.47;2.90;;;12.00;99.90;;;;;;4983397;28;20179;-85
2023/01/06 10:16:35;;;;;;;4.00;2.50;;;12.00;99.90;;;;;;4985804;28;20167;-85
2023/01/06 10:19:26;;;;;;;4.03;2.40;;;12.10;99.90;;;;;;4980031;28;20176;-84
2023/01/06 10:22:19;;;;;;;3.63;2.33;;;12.00;99.90;;;;;;4984446;28;20271;-85
2023/01/06 10:24:53;;;;;;;3.93;2.67;;;11.90;99.90;;;;;;4977871;28;20207;-87
2023/01/06 10:27:40;;;;;;;4.17;2.20;;;11.90;99.90;;;;;;4977005;28;20179;-88
2023/01/06 10:30:26;;;;;;;3.23;2.00;;;11.90;99.90;;;;;;4975701;28;20183;-81
2023/01/06 10:32:53;;;;;;;2.90;1.90;;;12.00;99.90;;;;;;4979395;28;20502;-90
2023/01/06 10:35:23;;;;;;;3.20;1.60;;;12.10;99.90;;;;;;4984690;28;20172;-85
2023/01/06 10:37:51;;;;;;;3.40;2.00;;;12.20;99.90;;;;;;4998916;28;20161;-87
2023/01/06 10:40:25;;;;;;;3.73;2.10;;;12.10;99.90;;;;;;4997572;28;20168;-87
2023/01/06 10:43:21;;;;;;;2.43;1.77;;;12.10;99.90;;;;;;4999106;28;20187;-84
2023/01/06 10:46:01;;;;;;;2.97;2.00;;;12.00;99.90;;;;;;4998996;28;20188;-85
2023/01/06 10:48:29;;;;;;;3.40;1.97;;;11.90;99.90;;;;;;4976595;28;20218;-89
2023/01/06 10:50:56;;;;;;;2.77;1.93;;;11.90;99.90;;;;;;4982710;28;20250;-86
2023/01/06 10:53:21;;;;;;;2.73;1.80;;;11.90;99.90;;;;;;4997927;28;20182;-85
2023/01/06 10:56:00;;;;;;;2.30;1.80;;;12.10;99.90;;;;;;4990260;28;20178;-90
2023/01/06 10:58:48;;;;;;;4.30;1.70;;;12.00;99.90;;;;;;4978985;28;20616;-88
2023/01/06 11:01:26;;;;;;;1.87;1.67;;;12.10;99.90;;;;;;4976739;28;20620;-89
2023/01/06 11:04:11;;;;;;;4.47;1.50;;;12.10;99.90;;;;;;4975696;28;20243;-88
2023/01/06 11:06:42;;;;;;;2.00;1.50;;;12.00;99.90;;;;;;4977084;28;20216;-88
2023/01/06 11:09:23;;;;;;;2.20;1.27;;;12.00;99.90;;;;;;4976893;28;20235;-89
2023/01/06 11:11:53;;;;;;;2.23;1.57;;;11.90;99.90;;;;;;4976960;28;20210;-90
2023/01/06 11:14:21;;;;;;;3.50;1.67;;;12.00;99.90;;;;;;4961373;28;20199;-88
2023/01/06 11:17:01;;;;;;;2.13;1.20;;;11.90;99.90;;;;;;4981429;28;20156;-88
2023/01/06 11:19:38;;;;;;;1.93;1.40;;;12.00;99.90;;;;;;4991910;28;20179;-88
2023/01/06 11:22:28;;;;;;;1.80;1.40;;;12.00;99.90;;;;;;4989816;28;20216;-85
2023/01/06 11:24:53;;;;;;;2.00;1.50;;;11.90;99.90;;;;;;4991587;28;20211;-85
2023/01/06 11:27:19;;;;;;;2.20;1.53;;;12.00;99.90;;;;;;4990544;28;20194;-89
2023/01/06 11:29:45;;;;;;;1.90;1.40;;;11.90;99.90;;;;;;4976689;28;20186;-89
2023/01/06 11:32:23;;;;;;;3.07;1.60;;;11.90;99.90;;;;;;4977007;28;20176;-88
2023/01/06 11:35:01;;;;;;;3.67;2.20;;;11.80;99.90;;;;;;4976643;28;20658;-89
2023/01/06 11:37:36;;;;;;;3.20;2.33;;;12.00;99.90;;;;;;4977074;28;20198;-89
2023/01/06 11:40:27;;;;;;;2.63;2.30;;;11.90;99.90;;;;;;4977662;28;20168;-88
2023/01/06 11:43:07;;;;;;;3.43;2.43;;;12.00;99.90;;;;;;4976121;28;20171;-89
2023/01/06 11:45:46;;;;;;;2.77;2.23;;;12.10;99.90;;;;;;4976263;28;20520;-89
2023/01/06 11:48:33;;;;;;;3.70;2.33;;;12.20;99.90;;;;;;4976811;28;20229;-89
2023/01/06 11:51:14;;;;;;;3.57;2.23;;;12.10;99.90;;;;;;4982115;28;20195;-88
2023/01/06 11:53:55;;;;;;;3.27;2.03;;;12.10;99.90;;;;;;4970849;28;20183;-90
2023/01/06 11:56:22;;;;;;;2.83;2.13;;;12.20;99.90;;;;;;4986521;28;20314;-85
2023/01/06 11:59:06;;;;;;;3.43;2.07;;;12.00;99.90;;;;;;4985331;28;20202;-88
2023/01/06 12:01:38;;;;;;;2.80;2.30;;;11.90;99.90;;;;;;4992508;28;20199;-90
2023/01/06 12:04:36;;;;;;;3.60;2.20;;;11.90;99.90;;;;;;4991742;28;20286;-88
2023/01/06 12:07:24;;;;;;;3.97;2.17;;;12.00;99.90;;;;;;4990486;28;20172;-88
2023/01/06 12:09:53;;;;;;;3.33;2.50;;;12.00;99.90;;;;;;4983000;28;20259;-86
2023/01/06 12:12:22;;;;;;;4.53;2.20;;;12.10;99.90;;;;;;4975012;28;20234;-86
2023/01/06 12:14:47;;;;;;;3.07;2.20;;;12.00;99.90;;;;;;4976154;28;20223;-88
2023/01/06 12:17:35;;;;;;;2.90;2.40;;;12.00;99.90;;;;;;4981775;28;20255;-87
2023/01/06 12:20:11;;;;;;;3.60;2.30;;;12.00;99.90;;;;;;4974155;28;20176;-89
2023/01/06 12:22:59;;;;;;;3.00;2.27;;;11.90;99.90;;;;;;4973610;28;20182;-89
2023/01/06 12:25:55;;;;;;;2.90;2.37;;;12.00;99.90;;;;;;4973259;28;20302;-88
2023/01/06 12:28:30;;;;;;;4.67;3.20;;;12.00;99.90;;;;;;4974191;28;20184;-84
2023/01/06 12:31:17;;;;;;;5.90;4.50;;;12.30;99.90;;;;;;4980668;28;20210;-82
2023/01/06 12:33:54;;;;;;;3.10;2.57;;;12.20;99.90;;;;;;4981564;28;20203;-85
2023/01/06 12:36:26;;;;;;;4.10;3.20;;;12.10;99.90;;;;;;4974691;28;20188;-84
2023/01/06 12:38:58;;;;;;;3.20;2.40;;;12.10;99.90;;;;;;4975984;28;20511;-84
2023/01/06 12:41:42;;;;;;;3.30;2.60;;;12.20;99.90;;;;;;4973295;28;20404;-83
2023/01/06 12:44:46;;;;;;;3.30;2.70;;;12.30;99.90;;;;;;4978487;28;20196;-85
2023/01/06 12:47:26;;;;;;;3.40;2.50;;;12.20;99.90;;;;;;4994032;28;20283;-85
2023/01/06 12:50:21;;;;;;;3.40;2.63;;;12.30;99.90;;;;;;4999907;28;20159;-85
2023/01/06 12:52:51;;;;;;;5.13;2.80;;;12.30;99.90;;;;;;5000124;28;20180;-84
2023/01/06 12:55:55;;;;;;;2.97;2.40;;;12.30;99.90;;;;;;4986842;28;20203;-89
2023/01/06 12:58:27;;;;;;;3.53;2.53;;;12.40;99.90;;;;;;4980813;28;20203;-89
2023/01/06 13:01:01;;;;;;;2.80;2.10;;;12.40;99.90;;;;;;4984953;28;20171;-88
2023/01/06 13:03:56;;;;;;;3.43;2.50;;;12.40;99.90;;;;;;4980061;28;20179;-89
2023/01/06 13:06:32;;;;;;;3.07;2.37;;;12.50;99.90;;;;;;4998704;28;20177;-87
2023/01/06 13:09:15;;;;;;;3.50;2.33;;;12.50;99.90;;;;;;4989629;28;20220;-90
2023/01/06 13:12:16;;;;;;;3.20;2.47;;;12.50;99.90;;;;;;4980107;28;20207;-88
2023/01/06 13:15:03;;;;;;;3.43;2.60;;;12.60;99.90;;;;;;4979683;28;20250;-90